sensor_id;sensor_type;location;lat;lon;timestamp;P1;durP1;ratioP1;P2;durP2;ratioP2
54977;SDS011;40873;47.522;19.106;2023-05-15T00:02:24;8.43;;;5.63;;
54977;SDS011;40873;47.522;19.106;2023-05-15T00:04:52;9.77;;;6.47;;
54977;SDS011;40873;47.522;19.106;2023-05-15T00:07:19;10.75;;;6.40;;
54977;SDS011;40873;47.522;19.106;2023-05-15T00:09:46;8.18;;;6.18;;
54977;SDS011;40873;47.522;19.106;2023-05-15T00:12:13;9.40;;;6.35;;
54977;SDS011;40873;47.522;19.106;2023-05-15T00:14:41;8.63;;;6.07;;
54977;SDS011;40873;47.522;19.106;2023-05-15T00:17:07;8.80;;;6.07;;
54977;SDS011;40873;47.522;19.106;2023-05-15T00:19:35;7.95;;;6.15;;
54977;SDS011;40873;47.522;19.106;2023-05-15T00:22:02;9.23;;;6.05;;
54977;SDS011;40873;47.522;19.106;2023-05-15T00:24:29;9.15;;;6.32;;
54977;SDS011;40873;47.522;19.106;2023-05-15T00:26:57;8.50;;;6.13;;
54977;SDS011;40873;47.522;19.106;2023-05-15T00:29:25;9.98;;;7.53;;
54977;SDS011;40873;47.522;19.106;2023-05-15T00:31:52;10.85;;;6.75;;
54977;SDS011;40873;47.522;19.106;2023-05-15T00:34:20;10.82;;;6.40;;
54977;SDS011;40873;47.522;19.106;2023-05-15T00:36:47;11.60;;;7.20;;
54977;SDS011;40873;47.522;19.106;2023-05-15T00:39:17;9.10;;;5.80;;
54977;SDS011;40873;47.522;19.106;2023-05-15T00:41:44;10.48;;;6.90;;
54977;SDS011;40873;47.522;19.106;2023-05-15T00:44:14;11.75;;;7.35;;
54977;SDS011;40873;47.522;19.106;2023-05-15T00:46:42;11.65;;;6.93;;
54977;SDS011;40873;47.522;19.106;2023-05-15T00:49:11;12.02;;;7.78;;
54977;SDS011;40873;47.522;19.106;2023-05-15T00:51:40;9.07;;;6.47;;
54977;SDS011;40873;47.522;19.106;2023-05-15T00:54:10;10.45;;;6.15;;
54977;SDS011;40873;47.522;19.106;2023-05-15T00:56:37;8.93;;;6.50;;
54977;SDS011;40873;47.522;19.106;2023-05-15T00:59:05;10.65;;;7.03;;
54977;SDS011;40873;47.522;19.106;2023-05-15T01:01:33;10.70;;;6.88;;
54977;SDS011;40873;47.522;19.106;2023-05-15T01:04:01;10.25;;;6.43;;
54977;SDS011;40873;47.522;19.106;2023-05-15T01:06:28;9.82;;;7.53;;
54977;SDS011;40873;47.522;19.106;2023-05-15T01:08:57;11.15;;;7.60;;
54977;SDS011;40873;47.522;19.106;2023-05-15T01:11:27;10.02;;;6.70;;
54977;SDS011;40873;47.522;19.106;2023-05-15T01:14:02;10.10;;;6.40;;
54977;SDS011;40873;47.522;19.106;2023-05-15T01:16:31;11.07;;;6.97;;
54977;SDS011;40873;47.522;19.106;2023-05-15T01:18:59;9.80;;;7.10;;
54977;SDS011;40873;47.522;19.106;2023-05-15T01:21:32;10.32;;;7.50;;
54977;SDS011;40873;47.522;19.106;2023-05-15T01:27:35;11.50;;;7.68;;
54977;SDS011;40873;47.522;19.106;2023-05-15T01:30:37;10.43;;;6.65;;
54977;SDS011;40873;47.522;19.106;2023-05-15T01:33:26;9.80;;;7.07;;
54977;SDS011;40873;47.522;19.106;2023-05-15T01:39:00;14.52;;;7.80;;
54977;SDS011;40873;47.522;19.106;2023-05-15T01:41:30;9.20;;;7.45;;
54977;SDS011;40873;47.522;19.106;2023-05-15T01:44:07;18.85;;;7.35;;
54977;SDS011;40873;47.522;19.106;2023-05-15T01:46:44;12.98;;;8.63;;
54977;SDS011;40873;47.522;19.106;2023-05-15T01:49:15;9.82;;;7.40;;
54977;SDS011;40873;47.522;19.106;2023-05-15T01:51:46;9.88;;;7.07;;
54977;SDS011;40873;47.522;19.106;2023-05-15T01:54:16;11.02;;;7.25;;
54977;SDS011;40873;47.522;19.106;2023-05-15T01:56:44;10.60;;;7.40;;
54977;SDS011;40873;47.522;19.106;2023-05-15T01:59:12;10.13;;;6.95;;
54977;SDS011;40873;47.522;19.106;2023-05-15T02:01:40;10.38;;;7.82;;
54977;SDS011;40873;47.522;19.106;2023-05-15T02:04:08;12.70;;;8.23;;
54977;SDS011;40873;47.522;19.106;2023-05-15T02:06:36;11.88;;;7.90;;
54977;SDS011;40873;47.522;19.106;2023-05-15T02:09:04;14.30;;;8.82;;
54977;SDS011;40873;47.522;19.106;2023-05-15T02:11:33;13.38;;;7.55;;
54977;SDS011;40873;47.522;19.106;2023-05-15T02:14:01;11.90;;;8.57;;
54977;SDS011;40873;47.522;19.106;2023-05-15T02:16:30;14.07;;;8.40;;
54977;SDS011;40873;47.522;19.106;2023-05-15T02:18:57;12.23;;;7.95;;
54977;SDS011;40873;47.522;19.106;2023-05-15T02:21:25;10.85;;;8.40;;
54977;SDS011;40873;47.522;19.106;2023-05-15T02:23:51;11.13;;;7.50;;
54977;SDS011;40873;47.522;19.106;2023-05-15T02:34:08;10.77;;;7.30;;
54977;SDS011;40873;47.522;19.106;2023-05-15T02:39:17;11.10;;;7.05;;
54977;SDS011;40873;47.522;19.106;2023-05-15T02:41:49;15.40;;;8.57;;
54977;SDS011;40873;47.522;19.106;2023-05-15T02:44:18;13.05;;;8.82;;
54977;SDS011;40873;47.522;19.106;2023-05-15T02:46:46;14.05;;;8.82;;
54977;SDS011;40873;47.522;19.106;2023-05-15T02:49:15;13.93;;;8.75;;
54977;SDS011;40873;47.522;19.106;2023-05-15T02:51:43;15.88;;;9.73;;
54977;SDS011;40873;47.522;19.106;2023-05-15T02:54:10;13.48;;;8.70;;
54977;SDS011;40873;47.522;19.106;2023-05-15T02:56:37;15.02;;;8.85;;
54977;SDS011;40873;47.522;19.106;2023-05-15T02:59:04;13.80;;;8.50;;
54977;SDS011;40873;47.522;19.106;2023-05-15T03:01:31;11.55;;;8.77;;
54977;SDS011;40873;47.522;19.106;2023-05-15T03:03:58;13.18;;;8.60;;
54977;SDS011;40873;47.522;19.106;2023-05-15T03:06:25;14.23;;;9.23;;
54977;SDS011;40873;47.522;19.106;2023-05-15T03:08:54;12.85;;;8.30;;
54977;SDS011;40873;47.522;19.106;2023-05-15T03:11:22;15.40;;;9.32;;
54977;SDS011;40873;47.522;19.106;2023-05-15T03:13:48;13.75;;;9.93;;
54977;SDS011;40873;47.522;19.106;2023-05-15T03:16:15;13.27;;;9.18;;
54977;SDS011;40873;47.522;19.106;2023-05-15T03:18:42;10.90;;;7.90;;
54977;SDS011;40873;47.522;19.106;2023-05-15T03:21:09;12.75;;;9.02;;
54977;SDS011;40873;47.522;19.106;2023-05-15T03:23:36;14.27;;;9.15;;
54977;SDS011;40873;47.522;19.106;2023-05-15T03:26:03;13.57;;;10.13;;
54977;SDS011;40873;47.522;19.106;2023-05-15T03:28:30;15.07;;;9.13;;
54977;SDS011;40873;47.522;19.106;2023-05-15T03:30:57;13.68;;;9.20;;
54977;SDS011;40873;47.522;19.106;2023-05-15T03:33:24;16.10;;;9.93;;
54977;SDS011;40873;47.522;19.106;2023-05-15T03:35:51;13.55;;;8.80;;
54977;SDS011;40873;47.522;19.106;2023-05-15T03:38:18;16.70;;;8.48;;
54977;SDS011;40873;47.522;19.106;2023-05-15T03:40:45;17.95;;;9.75;;
54977;SDS011;40873;47.522;19.106;2023-05-15T03:43:16;14.02;;;9.20;;
54977;SDS011;40873;47.522;19.106;2023-05-15T03:45:43;14.15;;;9.88;;
54977;SDS011;40873;47.522;19.106;2023-05-15T03:48:10;15.73;;;10.10;;
54977;SDS011;40873;47.522;19.106;2023-05-15T03:50:37;16.73;;;9.48;;
54977;SDS011;40873;47.522;19.106;2023-05-15T03:53:05;15.02;;;9.52;;
54977;SDS011;40873;47.522;19.106;2023-05-15T03:55:32;18.73;;;9.38;;
54977;SDS011;40873;47.522;19.106;2023-05-15T03:58:01;17.08;;;10.40;;
54977;SDS011;40873;47.522;19.106;2023-05-15T04:00:28;18.08;;;10.40;;
54977;SDS011;40873;47.522;19.106;2023-05-15T04:02:55;16.90;;;9.52;;
54977;SDS011;40873;47.522;19.106;2023-05-15T04:05:22;14.15;;;9.55;;
54977;SDS011;40873;47.522;19.106;2023-05-15T04:07:49;15.13;;;9.70;;
54977;SDS011;40873;47.522;19.106;2023-05-15T04:10:16;14.15;;;9.98;;
54977;SDS011;40873;47.522;19.106;2023-05-15T04:12:43;15.98;;;10.00;;
54977;SDS011;40873;47.522;19.106;2023-05-15T04:17:40;14.55;;;9.50;;
54977;SDS011;40873;47.522;19.106;2023-05-15T04:20:08;16.45;;;10.20;;
54977;SDS011;40873;47.522;19.106;2023-05-15T04:22:36;15.10;;;10.15;;
54977;SDS011;40873;47.522;19.106;2023-05-15T04:25:03;18.67;;;10.65;;
54977;SDS011;40873;47.522;19.106;2023-05-15T04:27:30;16.10;;;10.05;;
54977;SDS011;40873;47.522;19.106;2023-05-15T04:29:57;16.10;;;10.13;;
54977;SDS011;40873;47.522;19.106;2023-05-15T04:32:25;14.75;;;9.40;;
54977;SDS011;40873;47.522;19.106;2023-05-15T04:34:53;15.02;;;9.95;;
54977;SDS011;40873;47.522;19.106;2023-05-15T04:37:20;16.45;;;9.77;;
54977;SDS011;40873;47.522;19.106;2023-05-15T04:39:47;15.07;;;9.88;;
54977;SDS011;40873;47.522;19.106;2023-05-15T04:42:14;14.93;;;10.20;;
54977;SDS011;40873;47.522;19.106;2023-05-15T04:44:41;17.50;;;10.68;;
54977;SDS011;40873;47.522;19.106;2023-05-15T04:47:08;18.70;;;10.43;;
54977;SDS011;40873;47.522;19.106;2023-05-15T04:49:36;15.70;;;11.00;;
54977;SDS011;40873;47.522;19.106;2023-05-15T04:52:03;20.48;;;11.25;;
54977;SDS011;40873;47.522;19.106;2023-05-15T04:54:30;16.55;;;9.52;;
54977;SDS011;40873;47.522;19.106;2023-05-15T04:56:57;17.35;;;11.20;;
54977;SDS011;40873;47.522;19.106;2023-05-15T04:59:24;18.65;;;11.55;;
54977;SDS011;40873;47.522;19.106;2023-05-15T05:01:51;17.25;;;11.57;;
54977;SDS011;40873;47.522;19.106;2023-05-15T05:04:18;18.98;;;11.85;;
54977;SDS011;40873;47.522;19.106;2023-05-15T05:06:45;19.92;;;12.48;;
54977;SDS011;40873;47.522;19.106;2023-05-15T05:09:13;21.70;;;13.35;;
54977;SDS011;40873;47.522;19.106;2023-05-15T05:11:40;22.90;;;12.60;;
54977;SDS011;40873;47.522;19.106;2023-05-15T05:14:10;24.13;;;13.77;;
54977;SDS011;40873;47.522;19.106;2023-05-15T05:16:38;22.02;;;12.77;;
54977;SDS011;40873;47.522;19.106;2023-05-15T05:19:05;25.08;;;13.52;;
54977;SDS011;40873;47.522;19.106;2023-05-15T05:21:32;22.42;;;12.85;;
54977;SDS011;40873;47.522;19.106;2023-05-15T05:23:59;22.33;;;12.50;;
54977;SDS011;40873;47.522;19.106;2023-05-15T05:26:26;20.50;;;12.52;;
54977;SDS011;40873;47.522;19.106;2023-05-15T05:28:53;22.02;;;14.90;;
54977;SDS011;40873;47.522;19.106;2023-05-15T05:31:20;22.25;;;13.50;;
54977;SDS011;40873;47.522;19.106;2023-05-15T05:33:47;22.23;;;13.18;;
54977;SDS011;40873;47.522;19.106;2023-05-15T05:36:18;20.50;;;12.35;;
54977;SDS011;40873;47.522;19.106;2023-05-15T05:38:45;22.60;;;14.15;;
54977;SDS011;40873;47.522;19.106;2023-05-15T05:41:12;19.98;;;13.02;;
54977;SDS011;40873;47.522;19.106;2023-05-15T05:43:39;24.98;;;13.52;;
54977;SDS011;40873;47.522;19.106;2023-05-15T05:46:06;21.42;;;13.27;;
54977;SDS011;40873;47.522;19.106;2023-05-15T05:48:33;21.23;;;13.48;;
54977;SDS011;40873;47.522;19.106;2023-05-15T05:51:00;22.50;;;13.13;;
54977;SDS011;40873;47.522;19.106;2023-05-15T05:53:27;20.45;;;12.48;;
54977;SDS011;40873;47.522;19.106;2023-05-15T05:55:53;21.55;;;14.07;;
54977;SDS011;40873;47.522;19.106;2023-05-15T05:58:21;22.10;;;13.13;;
54977;SDS011;40873;47.522;19.106;2023-05-15T06:00:52;18.98;;;11.60;;
54977;SDS011;40873;47.522;19.106;2023-05-15T06:03:19;18.65;;;12.48;;
54977;SDS011;40873;47.522;19.106;2023-05-15T06:05:47;20.38;;;13.20;;
54977;SDS011;40873;47.522;19.106;2023-05-15T06:08:14;24.45;;;12.98;;
54977;SDS011;40873;47.522;19.106;2023-05-15T06:10:41;20.60;;;12.82;;
54977;SDS011;40873;47.522;19.106;2023-05-15T06:13:08;20.13;;;13.73;;
54977;SDS011;40873;47.522;19.106;2023-05-15T06:15:35;21.33;;;13.35;;
54977;SDS011;40873;47.522;19.106;2023-05-15T06:18:02;22.50;;;13.52;;
54977;SDS011;40873;47.522;19.106;2023-05-15T06:20:29;20.23;;;13.40;;
54977;SDS011;40873;47.522;19.106;2023-05-15T06:22:56;19.75;;;12.55;;
54977;SDS011;40873;47.522;19.106;2023-05-15T06:25:23;19.50;;;12.40;;
54977;SDS011;40873;47.522;19.106;2023-05-15T06:27:52;21.58;;;12.15;;
54977;SDS011;40873;47.522;19.106;2023-05-15T06:30:19;20.60;;;10.98;;
54977;SDS011;40873;47.522;19.106;2023-05-15T06:32:46;16.02;;;10.07;;
54977;SDS011;40873;47.522;19.106;2023-05-15T06:35:14;18.55;;;10.90;;
54977;SDS011;40873;47.522;19.106;2023-05-15T06:37:41;21.13;;;12.13;;
54977;SDS011;40873;47.522;19.106;2023-05-15T06:40:08;20.13;;;11.55;;
54977;SDS011;40873;47.522;19.106;2023-05-15T06:42:35;15.77;;;9.93;;
54977;SDS011;40873;47.522;19.106;2023-05-15T06:45:02;18.27;;;10.93;;
54977;SDS011;40873;47.522;19.106;2023-05-15T06:47:30;18.73;;;10.43;;
54977;SDS011;40873;47.522;19.106;2023-05-15T06:49:57;17.15;;;10.43;;
54977;SDS011;40873;47.522;19.106;2023-05-15T06:52:24;16.30;;;9.82;;
54977;SDS011;40873;47.522;19.106;2023-05-15T06:54:50;14.05;;;9.02;;
54977;SDS011;40873;47.522;19.106;2023-05-15T06:57:18;15.70;;;9.73;;
54977;SDS011;40873;47.522;19.106;2023-05-15T06:59:45;14.95;;;9.90;;
54977;SDS011;40873;47.522;19.106;2023-05-15T07:02:12;14.70;;;10.20;;
54977;SDS011;40873;47.522;19.106;2023-05-15T07:04:39;14.50;;;10.18;;
54977;SDS011;40873;47.522;19.106;2023-05-15T07:07:09;15.07;;;9.25;;
54977;SDS011;40873;47.522;19.106;2023-05-15T07:09:36;13.30;;;9.15;;
54977;SDS011;40873;47.522;19.106;2023-05-15T07:12:03;14.15;;;8.82;;
54977;SDS011;40873;47.522;19.106;2023-05-15T07:14:30;14.25;;;9.30;;
54977;SDS011;40873;47.522;19.106;2023-05-15T07:16:59;16.48;;;10.40;;
54977;SDS011;40873;47.522;19.106;2023-05-15T07:19:26;14.30;;;8.80;;
54977;SDS011;40873;47.522;19.106;2023-05-15T07:21:54;13.23;;;8.25;;
54977;SDS011;40873;47.522;19.106;2023-05-15T07:24:21;14.32;;;8.25;;
54977;SDS011;40873;47.522;19.106;2023-05-15T07:26:48;11.32;;;7.90;;
54977;SDS011;40873;47.522;19.106;2023-05-15T07:29:24;12.80;;;8.10;;
54977;SDS011;40873;47.522;19.106;2023-05-15T07:31:52;11.88;;;7.85;;
54977;SDS011;40873;47.522;19.106;2023-05-15T07:34:19;12.68;;;8.48;;
54977;SDS011;40873;47.522;19.106;2023-05-15T07:36:46;9.75;;;6.57;;
54977;SDS011;40873;47.522;19.106;2023-05-15T07:39:13;9.45;;;6.95;;
54977;SDS011;40873;47.522;19.106;2023-05-15T07:41:40;13.23;;;7.22;;
54977;SDS011;40873;47.522;19.106;2023-05-15T07:44:07;11.40;;;7.68;;
54977;SDS011;40873;47.522;19.106;2023-05-15T07:46:34;12.43;;;8.50;;
54977;SDS011;40873;47.522;19.106;2023-05-15T07:49:01;11.13;;;7.93;;
54977;SDS011;40873;47.522;19.106;2023-05-15T07:51:28;11.52;;;8.13;;
54977;SDS011;40873;47.522;19.106;2023-05-15T07:53:55;13.95;;;9.05;;
54977;SDS011;40873;47.522;19.106;2023-05-15T07:56:22;15.60;;;8.98;;
54977;SDS011;40873;47.522;19.106;2023-05-15T07:58:49;13.93;;;8.20;;
54977;SDS011;40873;47.522;19.106;2023-05-15T08:01:16;12.88;;;9.52;;
54977;SDS011;40873;47.522;19.106;2023-05-15T08:03:43;11.52;;;7.93;;
54977;SDS011;40873;47.522;19.106;2023-05-15T08:06:10;12.13;;;8.90;;
54977;SDS011;40873;47.522;19.106;2023-05-15T08:08:37;12.88;;;8.32;;
54977;SDS011;40873;47.522;19.106;2023-05-15T08:11:04;12.23;;;8.75;;
54977;SDS011;40873;47.522;19.106;2023-05-15T08:13:31;12.95;;;8.40;;
54977;SDS011;40873;47.522;19.106;2023-05-15T08:15:58;15.70;;;8.73;;
54977;SDS011;40873;47.522;19.106;2023-05-15T08:18:25;12.80;;;8.65;;
54977;SDS011;40873;47.522;19.106;2023-05-15T08:20:53;12.25;;;8.10;;
54977;SDS011;40873;47.522;19.106;2023-05-15T08:23:19;13.40;;;8.50;;
54977;SDS011;40873;47.522;19.106;2023-05-15T08:25:46;14.85;;;7.72;;
54977;SDS011;40873;47.522;19.106;2023-05-15T08:28:13;14.05;;;8.18;;
54977;SDS011;40873;47.522;19.106;2023-05-15T08:30:40;12.45;;;8.70;;
54977;SDS011;40873;47.522;19.106;2023-05-15T08:33:07;12.32;;;8.10;;
54977;SDS011;40873;47.522;19.106;2023-05-15T08:35:34;11.98;;;8.05;;
54977;SDS011;40873;47.522;19.106;2023-05-15T08:38:01;12.35;;;7.47;;
54977;SDS011;40873;47.522;19.106;2023-05-15T08:40:29;10.93;;;7.22;;
54977;SDS011;40873;47.522;19.106;2023-05-15T08:43:08;10.75;;;7.70;;
54977;SDS011;40873;47.522;19.106;2023-05-15T08:45:41;12.88;;;8.23;;
54977;SDS011;40873;47.522;19.106;2023-05-15T08:48:15;14.45;;;8.13;;
54977;SDS011;40873;47.522;19.106;2023-05-15T08:50:43;13.48;;;8.07;;
54977;SDS011;40873;47.522;19.106;2023-05-15T08:53:11;14.15;;;8.75;;
54977;SDS011;40873;47.522;19.106;2023-05-15T08:55:39;12.32;;;7.90;;
54977;SDS011;40873;47.522;19.106;2023-05-15T08:58:07;11.00;;;8.32;;
54977;SDS011;40873;47.522;19.106;2023-05-15T09:00:35;12.23;;;7.50;;
54977;SDS011;40873;47.522;19.106;2023-05-15T09:03:05;11.65;;;8.02;;
54977;SDS011;40873;47.522;19.106;2023-05-15T09:05:40;11.48;;;6.50;;
54977;SDS011;40873;47.522;19.106;2023-05-15T09:08:07;11.15;;;6.63;;
54977;SDS011;40873;47.522;19.106;2023-05-15T09:10:34;10.18;;;6.82;;
54977;SDS011;40873;47.522;19.106;2023-05-15T09:13:01;11.20;;;6.70;;
54977;SDS011;40873;47.522;19.106;2023-05-15T09:15:30;11.18;;;7.22;;
54977;SDS011;40873;47.522;19.106;2023-05-15T09:17:58;9.13;;;4.80;;
54977;SDS011;40873;47.522;19.106;2023-05-15T09:20:27;10.25;;;6.25;;
54977;SDS011;40873;47.522;19.106;2023-05-15T09:22:58;11.25;;;6.47;;
54977;SDS011;40873;47.522;19.106;2023-05-15T09:28:05;12.32;;;7.10;;
54977;SDS011;40873;47.522;19.106;2023-05-15T09:30:32;10.23;;;5.57;;
54977;SDS011;40873;47.522;19.106;2023-05-15T09:33:02;9.20;;;6.10;;
54977;SDS011;40873;47.522;19.106;2023-05-15T09:35:30;8.95;;;5.60;;
54977;SDS011;40873;47.522;19.106;2023-05-15T09:38:03;8.85;;;5.68;;
54977;SDS011;40873;47.522;19.106;2023-05-15T09:40:34;9.15;;;5.50;;
54977;SDS011;40873;47.522;19.106;2023-05-15T09:43:03;5.85;;;4.55;;
54977;SDS011;40873;47.522;19.106;2023-05-15T09:45:30;6.85;;;3.67;;
54977;SDS011;40873;47.522;19.106;2023-05-15T09:48:00;6.15;;;4.00;;
54977;SDS011;40873;47.522;19.106;2023-05-15T09:50:32;5.22;;;3.28;;
54977;SDS011;40873;47.522;19.106;2023-05-15T09:53:03;4.35;;;3.03;;
54977;SDS011;40873;47.522;19.106;2023-05-15T09:55:32;5.38;;;2.92;;
54977;SDS011;40873;47.522;19.106;2023-05-15T09:58:10;4.75;;;2.40;;
54977;SDS011;40873;47.522;19.106;2023-05-15T10:00:42;3.78;;;2.05;;
54977;SDS011;40873;47.522;19.106;2023-05-15T10:03:14;5.28;;;2.42;;
54977;SDS011;40873;47.522;19.106;2023-05-15T10:05:43;3.42;;;2.20;;
54977;SDS011;40873;47.522;19.106;2023-05-15T10:08:10;4.13;;;2.60;;
54977;SDS011;40873;47.522;19.106;2023-05-15T10:10:38;4.25;;;2.33;;
54977;SDS011;40873;47.522;19.106;2023-05-15T10:13:05;3.72;;;2.58;;
54977;SDS011;40873;47.522;19.106;2023-05-15T10:15:34;3.78;;;2.20;;
54977;SDS011;40873;47.522;19.106;2023-05-15T10:18:01;3.97;;;2.10;;
54977;SDS011;40873;47.522;19.106;2023-05-15T10:20:31;3.67;;;2.50;;
54977;SDS011;40873;47.522;19.106;2023-05-15T10:23:02;3.60;;;2.40;;
54977;SDS011;40873;47.522;19.106;2023-05-15T10:25:40;4.13;;;2.42;;
54977;SDS011;40873;47.522;19.106;2023-05-15T10:28:11;3.70;;;2.22;;
54977;SDS011;40873;47.522;19.106;2023-05-15T10:30:39;7.32;;;2.10;;
54977;SDS011;40873;47.522;19.106;2023-05-15T10:33:07;4.05;;;2.25;;
54977;SDS011;40873;47.522;19.106;2023-05-15T10:35:39;2.75;;;1.60;;
54977;SDS011;40873;47.522;19.106;2023-05-15T10:38:07;2.70;;;1.65;;
54977;SDS011;40873;47.522;19.106;2023-05-15T10:40:37;2.83;;;1.63;;
54977;SDS011;40873;47.522;19.106;2023-05-15T10:43:06;2.38;;;1.58;;
54977;SDS011;40873;47.522;19.106;2023-05-15T10:45:36;2.08;;;1.20;;
54977;SDS011;40873;47.522;19.106;2023-05-15T10:48:03;2.63;;;1.45;;
54977;SDS011;40873;47.522;19.106;2023-05-15T10:50:35;2.22;;;1.30;;
54977;SDS011;40873;47.522;19.106;2023-05-15T10:53:03;1.70;;;1.20;;
54977;SDS011;40873;47.522;19.106;2023-05-15T10:55:33;4.30;;;1.98;;
54977;SDS011;40873;47.522;19.106;2023-05-15T10:58:07;1.40;;;1.00;;
54977;SDS011;40873;47.522;19.106;2023-05-15T11:03:15;1.48;;;0.88;;
54977;SDS011;40873;47.522;19.106;2023-05-15T11:06:14;1.30;;;0.98;;
54977;SDS011;40873;47.522;19.106;2023-05-15T11:08:41;1.55;;;1.38;;
54977;SDS011;40873;47.522;19.106;2023-05-15T11:14:15;1.67;;;1.10;;
54977;SDS011;40873;47.522;19.106;2023-05-15T11:19:21;3.35;;;1.00;;
54977;SDS011;40873;47.522;19.106;2023-05-15T11:24:30;1.50;;;0.85;;
54977;SDS011;40873;47.522;19.106;2023-05-15T11:26:59;1.85;;;0.90;;
54977;SDS011;40873;47.522;19.106;2023-05-15T11:29:27;1.05;;;0.80;;
54977;SDS011;40873;47.522;19.106;2023-05-15T11:31:54;2.50;;;1.20;;
54977;SDS011;40873;47.522;19.106;2023-05-15T11:34:33;2.20;;;0.90;;
54977;SDS011;40873;47.522;19.106;2023-05-15T11:37:01;1.50;;;0.90;;
54977;SDS011;40873;47.522;19.106;2023-05-15T11:39:28;2.10;;;1.00;;
54977;SDS011;40873;47.522;19.106;2023-05-15T11:41:55;2.53;;;1.25;;
54977;SDS011;40873;47.522;19.106;2023-05-15T11:44:24;2.20;;;1.13;;
54977;SDS011;40873;47.522;19.106;2023-05-15T11:46:54;2.92;;;1.02;;
54977;SDS011;40873;47.522;19.106;2023-05-15T11:49:24;2.25;;;1.10;;
54977;SDS011;40873;47.522;19.106;2023-05-15T11:51:52;1.27;;;0.90;;
54977;SDS011;40873;47.522;19.106;2023-05-15T11:54:19;2.40;;;0.98;;
54977;SDS011;40873;47.522;19.106;2023-05-15T11:56:46;1.83;;;0.90;;
54977;SDS011;40873;47.522;19.106;2023-05-15T11:59:13;2.40;;;1.00;;
54977;SDS011;40873;47.522;19.106;2023-05-15T12:01:41;3.05;;;1.10;;
54977;SDS011;40873;47.522;19.106;2023-05-15T12:04:13;3.30;;;0.90;;
54977;SDS011;40873;47.522;19.106;2023-05-15T12:06:42;1.10;;;0.80;;
54977;SDS011;40873;47.522;19.106;2023-05-15T12:09:13;1.10;;;0.80;;
54977;SDS011;40873;47.522;19.106;2023-05-15T12:11:53;1.88;;;1.25;;
54977;SDS011;40873;47.522;19.106;2023-05-15T12:14:27;1.60;;;1.00;;
54977;SDS011;40873;47.522;19.106;2023-05-15T12:16:58;2.60;;;1.55;;
54977;SDS011;40873;47.522;19.106;2023-05-15T12:19:29;2.35;;;1.30;;
54977;SDS011;40873;47.522;19.106;2023-05-15T12:21:56;2.95;;;1.55;;
54977;SDS011;40873;47.522;19.106;2023-05-15T12:24:24;1.80;;;1.20;;
54977;SDS011;40873;47.522;19.106;2023-05-15T12:26:52;2.20;;;1.13;;
54977;SDS011;40873;47.522;19.106;2023-05-15T12:29:22;2.30;;;0.95;;
54977;SDS011;40873;47.522;19.106;2023-05-15T12:31:51;1.95;;;1.23;;
54977;SDS011;40873;47.522;19.106;2023-05-15T12:34:19;1.85;;;1.10;;
54977;SDS011;40873;47.522;19.106;2023-05-15T12:36:47;2.03;;;1.27;;
54977;SDS011;40873;47.522;19.106;2023-05-15T12:39:14;1.60;;;1.15;;
54977;SDS011;40873;47.522;19.106;2023-05-15T12:41:41;6.00;;;1.10;;
54977;SDS011;40873;47.522;19.106;2023-05-15T12:44:17;3.20;;;1.50;;
54977;SDS011;40873;47.522;19.106;2023-05-15T12:46:45;2.38;;;1.20;;
54977;SDS011;40873;47.522;19.106;2023-05-15T12:49:12;2.95;;;1.23;;
54977;SDS011;40873;47.522;19.106;2023-05-15T12:51:46;2.10;;;1.15;;
54977;SDS011;40873;47.522;19.106;2023-05-15T12:54:16;2.80;;;1.80;;
54977;SDS011;40873;47.522;19.106;2023-05-15T12:56:46;4.05;;;1.23;;
54977;SDS011;40873;47.522;19.106;2023-05-15T12:59:13;2.65;;;1.40;;
54977;SDS011;40873;47.522;19.106;2023-05-15T13:01:40;1.88;;;1.15;;
54977;SDS011;40873;47.522;19.106;2023-05-15T13:04:08;2.95;;;1.55;;
54977;SDS011;40873;47.522;19.106;2023-05-15T13:06:38;2.78;;;1.70;;
54977;SDS011;40873;47.522;19.106;2023-05-15T13:09:13;1.95;;;1.35;;
54977;SDS011;40873;47.522;19.106;2023-05-15T13:14:16;2.30;;;1.33;;
54977;SDS011;40873;47.522;19.106;2023-05-15T13:16:44;1.88;;;1.02;;
54977;SDS011;40873;47.522;19.106;2023-05-15T13:19:12;6.45;;;1.92;;
54977;SDS011;40873;47.522;19.106;2023-05-15T13:21:40;5.22;;;1.42;;
54977;SDS011;40873;47.522;19.106;2023-05-15T13:24:06;2.35;;;1.10;;
54977;SDS011;40873;47.522;19.106;2023-05-15T13:26:36;2.97;;;2.55;;
54977;SDS011;40873;47.522;19.106;2023-05-15T13:29:03;3.97;;;1.13;;
54977;SDS011;40873;47.522;19.106;2023-05-15T13:31:30;2.78;;;1.35;;
54977;SDS011;40873;47.522;19.106;2023-05-15T13:33:58;2.30;;;1.20;;
54977;SDS011;40873;47.522;19.106;2023-05-15T13:36:24;1.60;;;1.20;;
54977;SDS011;40873;47.522;19.106;2023-05-15T13:38:52;1.50;;;0.90;;
54977;SDS011;40873;47.522;19.106;2023-05-15T13:41:18;2.80;;;1.17;;
54977;SDS011;40873;47.522;19.106;2023-05-15T13:43:46;2.05;;;1.20;;
54977;SDS011;40873;47.522;19.106;2023-05-15T13:46:14;7.30;;;1.40;;
54977;SDS011;40873;47.522;19.106;2023-05-15T13:48:42;1.65;;;0.90;;
54977;SDS011;40873;47.522;19.106;2023-05-15T13:51:09;2.28;;;0.77;;
54977;SDS011;40873;47.522;19.106;2023-05-15T13:53:36;1.40;;;0.80;;
54977;SDS011;40873;47.522;19.106;2023-05-15T13:56:03;2.72;;;0.82;;
54977;SDS011;40873;47.522;19.106;2023-05-15T13:58:30;3.22;;;0.88;;
54977;SDS011;40873;47.522;19.106;2023-05-15T14:00:57;1.15;;;0.75;;
54977;SDS011;40873;47.522;19.106;2023-05-15T14:03:24;1.48;;;0.77;;
54977;SDS011;40873;47.522;19.106;2023-05-15T14:05:51;3.10;;;1.05;;
54977;SDS011;40873;47.522;19.106;2023-05-15T14:08:19;0.85;;;0.60;;
54977;SDS011;40873;47.522;19.106;2023-05-15T14:10:46;1.40;;;0.70;;
54977;SDS011;40873;47.522;19.106;2023-05-15T14:13:13;1.17;;;0.82;;
54977;SDS011;40873;47.522;19.106;2023-05-15T14:15:40;5.00;;;0.82;;
54977;SDS011;40873;47.522;19.106;2023-05-15T14:18:07;1.73;;;0.80;;
54977;SDS011;40873;47.522;19.106;2023-05-15T14:20:34;0.90;;;0.50;;
54977;SDS011;40873;47.522;19.106;2023-05-15T14:23:01;3.40;;;0.70;;
54977;SDS011;40873;47.522;19.106;2023-05-15T14:25:28;1.75;;;0.80;;
54977;SDS011;40873;47.522;19.106;2023-05-15T14:27:55;1.38;;;0.68;;
54977;SDS011;40873;47.522;19.106;2023-05-15T14:30:22;1.52;;;0.70;;
54977;SDS011;40873;47.522;19.106;2023-05-15T14:32:49;9.88;;;2.28;;
54977;SDS011;40873;47.522;19.106;2023-05-15T14:35:16;1.58;;;0.75;;
54977;SDS011;40873;47.522;19.106;2023-05-15T14:37:43;1.52;;;0.50;;
54977;SDS011;40873;47.522;19.106;2023-05-15T14:40:10;2.45;;;1.13;;
54977;SDS011;40873;47.522;19.106;2023-05-15T14:42:38;2.05;;;0.90;;
54977;SDS011;40873;47.522;19.106;2023-05-15T14:45:07;1.33;;;0.80;;
54977;SDS011;40873;47.522;19.106;2023-05-15T14:47:35;1.73;;;0.80;;
54977;SDS011;40873;47.522;19.106;2023-05-15T14:50:02;1.05;;;0.80;;
54977;SDS011;40873;47.522;19.106;2023-05-15T14:52:29;1.30;;;0.90;;
54977;SDS011;40873;47.522;19.106;2023-05-15T14:54:56;5.90;;;1.75;;
54977;SDS011;40873;47.522;19.106;2023-05-15T14:57:35;2.05;;;1.48;;
54977;SDS011;40873;47.522;19.106;2023-05-15T15:00:03;3.60;;;2.80;;
54977;SDS011;40873;47.522;19.106;2023-05-15T15:02:32;3.15;;;1.90;;
54977;SDS011;40873;47.522;19.106;2023-05-15T15:04:59;3.83;;;2.35;;
54977;SDS011;40873;47.522;19.106;2023-05-15T15:07:27;5.57;;;1.98;;
54977;SDS011;40873;47.522;19.106;2023-05-15T15:09:56;2.97;;;2.00;;